sensor_id;sensor_type;location;lat;lon;timestamp;pressure;altitude;pressure_sealevel;temperature;humidity
72423;BME280;60413;55.658;37.498;2023-02-24T00:02:14;98499.13;;;-9.42;100.00
72423;BME280;60413;55.658;37.498;2023-02-24T00:04:48;98501.84;;;-9.55;100.00
72423;BME280;60413;55.658;37.498;2023-02-24T00:07:26;98530.59;;;-9.32;100.00
72423;BME280;60413;55.658;37.498;2023-02-24T00:10:02;98599.31;;;-8.88;100.00
72423;BME280;60413;55.658;37.498;2023-02-24T00:15:17;98529.75;;;-9.32;100.00
72423;BME280;60413;55.658;37.498;2023-02-24T00:17:45;98549.50;;;-9.13;100.00
72423;BME280;60413;55.658;37.498;2023-02-24T00:20:12;98515.16;;;-9.30;100.00
72423;BME280;60413;55.658;37.498;2023-02-24T00:22:41;98545.97;;;-9.12;100.00
72423;BME280;60413;55.658;37.498;2023-02-24T00:25:09;98508.84;;;-9.26;100.00
72423;BME280;60413;55.658;37.498;2023-02-24T00:27:39;98485.78;;;-9.45;100.00
72423;BME280;60413;55.658;37.498;2023-02-24T00:30:08;98560.59;;;-8.93;100.00
72423;BME280;60413;55.658;37.498;2023-02-24T00:32:36;98542.25;;;-9.08;100.00
72423;BME280;60413;55.658;37.498;2023-02-24T00:35:03;98537.66;;;-9.14;100.00
72423;BME280;60413;55.658;37.498;2023-02-24T00:37:31;98538.31;;;-9.12;100.00
72423;BME280;60413;55.658;37.498;2023-02-24T00:40:00;98452.06;;;-9.49;100.00
72423;BME280;60413;55.658;37.498;2023-02-24T00:42:32;98503.75;;;-9.26;100.00
72423;BME280;60413;55.658;37.498;2023-02-24T00:45:01;98542.94;;;-9.06;100.00
72423;BME280;60413;55.658;37.498;2023-02-24T00:47:51;98480.59;;;-9.34;100.00
72423;BME280;60413;55.658;37.498;2023-02-24T00:50:23;98480.09;;;-9.28;100.00
72423;BME280;60413;55.658;37.498;2023-02-24T00:52:49;98491.41;;;-9.21;100.00
72423;BME280;60413;55.658;37.498;2023-02-24T00:55:19;98486.19;;;-9.19;100.00
72423;BME280;60413;55.658;37.498;2023-02-24T00:57:48;98420.84;;;-9.62;100.00
72423;BME280;60413;55.658;37.498;2023-02-24T01:00:29;98468.09;;;-9.37;100.00
72423;BME280;60413;55.658;37.498;2023-02-24T01:03:03;98453.31;;;-9.43;100.00
72423;BME280;60413;55.658;37.498;2023-02-24T01:05:29;98460.44;;;-9.37;100.00
72423;BME280;60413;55.658;37.498;2023-02-24T01:07:55;98417.66;;;-9.55;100.00
72423;BME280;60413;55.658;37.498;2023-02-24T01:10:27;98449.91;;;-9.23;100.00
72423;BME280;60413;55.658;37.498;2023-02-24T01:12:53;98449.44;;;-9.38;100.00
72423;BME280;60413;55.658;37.498;2023-02-24T01:15:21;98396.88;;;-9.50;100.00
72423;BME280;60413;55.658;37.498;2023-02-24T01:17:56;98416.94;;;-9.36;100.00
72423;BME280;60413;55.658;37.498;2023-02-24T01:20:25;98473.25;;;-8.97;100.00
72423;BME280;60413;55.658;37.498;2023-02-24T01:22:57;98411.03;;;-9.36;100.00
72423;BME280;60413;55.658;37.498;2023-02-24T01:25:46;98432.47;;;-9.08;100.00
72423;BME280;60413;55.658;37.498;2023-02-24T01:28:17;98376.53;;;-9.40;100.00
72423;BME280;60413;55.658;37.498;2023-02-24T01:30:46;98427.66;;;-9.01;100.00
72423;BME280;60413;55.658;37.498;2023-02-24T01:33:13;98367.25;;;-9.41;100.00
72423;BME280;60413;55.658;37.498;2023-02-24T01:35:45;98418.09;;;-9.09;100.00
72423;BME280;60413;55.658;37.498;2023-02-24T01:38:13;98396.56;;;-9.26;100.00
72423;BME280;60413;55.658;37.498;2023-02-24T01:40:39;98408.66;;;-9.28;100.00
72423;BME280;60413;55.658;37.498;2023-02-24T01:43:09;98389.81;;;-9.37;100.00
72423;BME280;60413;55.658;37.498;2023-02-24T01:45:35;98407.75;;;-9.07;100.00
72423;BME280;60413;55.658;37.498;2023-02-24T01:48:07;98398.97;;;-9.24;100.00
72423;BME280;60413;55.658;37.498;2023-02-24T01:50:35;98402.25;;;-9.13;100.00
72423;BME280;60413;55.658;37.498;2023-02-24T01:53:06;98377.50;;;-9.22;100.00
72423;BME280;60413;55.658;37.498;2023-02-24T01:55:39;98365.66;;;-9.33;100.00
72423;BME280;60413;55.658;37.498;2023-02-24T01:58:19;98425.53;;;-8.96;100.00
72423;BME280;60413;55.658;37.498;2023-02-24T02:01:03;98339.72;;;-9.38;100.00
72423;BME280;60413;55.658;37.498;2023-02-24T02:03:46;98358.78;;;-9.32;100.00
72423;BME280;60413;55.658;37.498;2023-02-24T02:06:14;98404.69;;;-9.01;100.00
72423;BME280;60413;55.658;37.498;2023-02-24T02:08:43;98403.47;;;-8.97;100.00
72423;BME280;60413;55.658;37.498;2023-02-24T02:11:13;98375.38;;;-9.17;100.00
72423;BME280;60413;55.658;37.498;2023-02-24T02:13:48;98309.59;;;-9.63;100.00
72423;BME280;60413;55.658;37.498;2023-02-24T02:16:46;98365.41;;;-9.20;100.00
72423;BME280;60413;55.658;37.498;2023-02-24T02:34:28;98341.13;;;-9.04;100.00
72423;BME280;60413;55.658;37.498;2023-02-24T02:39:56;98349.88;;;-8.87;100.00
72423;BME280;60413;55.658;37.498;2023-02-24T02:45:04;98255.13;;;-9.33;100.00
72423;BME280;60413;55.658;37.498;2023-02-24T02:48:08;98265.47;;;-9.35;100.00
72423;BME280;60413;55.658;37.498;2023-02-24T02:51:02;98286.16;;;-9.18;100.00
72423;BME280;60413;55.658;37.498;2023-02-24T02:53:35;98295.84;;;-8.83;100.00
72423;BME280;60413;55.658;37.498;2023-02-24T02:56:29;98321.53;;;-8.74;100.00
72423;BME280;60413;55.658;37.498;2023-02-24T02:59:04;98309.03;;;-8.78;100.00
72423;BME280;60413;55.658;37.498;2023-02-24T03:01:40;98254.44;;;-9.16;100.00
72423;BME280;60413;55.658;37.498;2023-02-24T03:04:12;98238.06;;;-9.23;100.00
72423;BME280;60413;55.658;37.498;2023-02-24T03:06:49;98234.84;;;-9.35;100.00
72423;BME280;60413;55.658;37.498;2023-02-24T03:09:30;98230.16;;;-9.20;100.00
72423;BME280;60413;55.658;37.498;2023-02-24T03:12:04;98259.03;;;-9.09;100.00
72423;BME280;60413;55.658;37.498;2023-02-24T03:14:42;98200.59;;;-9.32;100.00
72423;BME280;60413;55.658;37.498;2023-02-24T03:17:14;98217.53;;;-9.31;100.00
72423;BME280;60413;55.658;37.498;2023-02-24T03:20:04;98248.56;;;-9.06;100.00
72423;BME280;60413;55.658;37.498;2023-02-24T03:22:50;98260.13;;;-9.22;100.00
72423;BME280;60413;55.658;37.498;2023-02-24T03:25:22;98210.41;;;-9.47;100.00
72423;BME280;60413;55.658;37.498;2023-02-24T03:28:17;98209.06;;;-9.51;100.00
72423;BME280;60413;55.658;37.498;2023-02-24T03:30:58;98236.88;;;-9.28;100.00
72423;BME280;60413;55.658;37.498;2023-02-24T03:33:40;98216.44;;;-9.19;100.00
72423;BME280;60413;55.658;37.498;2023-02-24T03:36:09;98117.38;;;-9.82;100.00
72423;BME280;60413;55.658;37.498;2023-02-24T03:38:41;98194.03;;;-9.25;100.00
72423;BME280;60413;55.658;37.498;2023-02-24T03:41:10;98170.13;;;-9.43;100.00
72423;BME280;60413;55.658;37.498;2023-02-24T03:43:43;98139.66;;;-9.55;100.00
72423;BME280;60413;55.658;37.498;2023-02-24T03:46:10;98186.25;;;-9.14;100.00
72423;BME280;60413;55.658;37.498;2023-02-24T03:48:41;98159.38;;;-9.27;100.00
72423;BME280;60413;55.658;37.498;2023-02-24T03:51:17;98186.75;;;-9.10;100.00
72423;BME280;60413;55.658;37.498;2023-02-24T03:54:11;98188.09;;;-9.06;100.00
72423;BME280;60413;55.658;37.498;2023-02-24T04:00:02;98162.06;;;-9.29;100.00
72423;BME280;60413;55.658;37.498;2023-02-24T04:02:56;98154.91;;;-9.25;100.00
72423;BME280;60413;55.658;37.498;2023-02-24T04:05:29;98159.50;;;-9.19;100.00
72423;BME280;60413;55.658;37.498;2023-02-24T04:08:06;98162.56;;;-9.25;100.00
72423;BME280;60413;55.658;37.498;2023-02-24T04:13:48;98117.47;;;-9.35;100.00
72423;BME280;60413;55.658;37.498;2023-02-24T04:16:54;98134.50;;;-9.16;100.00
72423;BME280;60413;55.658;37.498;2023-02-24T04:19:28;98094.78;;;-9.38;100.00
72423;BME280;60413;55.658;37.498;2023-02-24T04:21:58;98095.72;;;-9.39;100.00
72423;BME280;60413;55.658;37.498;2023-02-24T04:24:32;98095.97;;;-9.32;100.00
72423;BME280;60413;55.658;37.498;2023-02-24T04:27:07;98108.47;;;-9.29;100.00
72423;BME280;60413;55.658;37.498;2023-02-24T04:29:41;98097.47;;;-9.39;100.00
72423;BME280;60413;55.658;37.498;2023-02-24T04:32:17;98130.72;;;-9.02;100.00
72423;BME280;60413;55.658;37.498;2023-02-24T04:35:04;98062.47;;;-9.57;100.00
72423;BME280;60413;55.658;37.498;2023-02-24T04:37:32;98039.38;;;-9.55;100.00
72423;BME280;60413;55.658;37.498;2023-02-24T04:40:03;98087.78;;;-9.36;100.00
72423;BME280;60413;55.658;37.498;2023-02-24T04:42:38;98062.72;;;-9.40;100.00
72423;BME280;60413;55.658;37.498;2023-02-24T04:45:37;98018.16;;;-9.65;100.00
72423;BME280;60413;55.658;37.498;2023-02-24T04:48:47;98078.38;;;-9.25;100.00
72423;BME280;60413;55.658;37.498;2023-02-24T04:51:18;98034.81;;;-9.61;100.00
72423;BME280;60413;55.658;37.498;2023-02-24T04:53:45;98045.91;;;-9.43;100.00
72423;BME280;60413;55.658;37.498;2023-02-24T04:56:11;98110.06;;;-9.08;100.00
72423;BME280;60413;55.658;37.498;2023-02-24T04:59:10;98055.72;;;-9.38;100.00
72423;BME280;60413;55.658;37.498;2023-02-24T05:01:48;98017.75;;;-9.51;100.00
72423;BME280;60413;55.658;37.498;2023-02-24T05:04:25;98019.88;;;-9.46;100.00
72423;BME280;60413;55.658;37.498;2023-02-24T05:07:24;98000.69;;;-9.51;100.00
72423;BME280;60413;55.658;37.498;2023-02-24T05:10:20;98060.19;;;-9.03;100.00
72423;BME280;60413;55.658;37.498;2023-02-24T05:13:33;97982.91;;;-9.33;100.00
72423;BME280;60413;55.658;37.498;2023-02-24T05:16:51;98076.19;;;-8.73;100.00
72423;BME280;60413;55.658;37.498;2023-02-24T05:19:47;98088.25;;;-8.65;100.00
72423;BME280;60413;55.658;37.498;2023-02-24T05:22:59;97979.25;;;-9.20;100.00
72423;BME280;60413;55.658;37.498;2023-02-24T05:25:46;97970.25;;;-9.24;100.00
72423;BME280;60413;55.658;37.498;2023-02-24T05:28:18;97994.84;;;-8.96;100.00
72423;BME280;60413;55.658;37.498;2023-02-24T05:31:24;98058.38;;;-8.55;100.00
72423;BME280;60413;55.658;37.498;2023-02-24T05:34:10;97949.94;;;-9.16;100.00
72423;BME280;60413;55.658;37.498;2023-02-24T05:36:44;97985.56;;;-8.69;100.00
72423;BME280;60413;55.658;37.498;2023-02-24T05:39:19;98006.75;;;-8.59;100.00
72423;BME280;60413;55.658;37.498;2023-02-24T05:41:49;97953.91;;;-8.76;100.00
72423;BME280;60413;55.658;37.498;2023-02-24T05:44:24;97959.38;;;-8.71;100.00
72423;BME280;60413;55.658;37.498;2023-02-24T05:47:21;97989.06;;;-8.34;100.00
72423;BME280;60413;55.658;37.498;2023-02-24T05:50:15;97940.19;;;-8.75;100.00
72423;BME280;60413;55.658;37.498;2023-02-24T05:52:45;97968.38;;;-8.67;100.00
72423;BME280;60413;55.658;37.498;2023-02-24T05:55:18;98006.25;;;-8.26;100.00
72423;BME280;60413;55.658;37.498;2023-02-24T05:57:58;97943.72;;;-8.58;100.00
72423;BME280;60413;55.658;37.498;2023-02-24T06:00:24;97952.16;;;-8.40;100.00
72423;BME280;60413;55.658;37.498;2023-02-24T06:02:51;97933.94;;;-8.45;100.00
72423;BME280;60413;55.658;37.498;2023-02-24T06:05:23;97934.75;;;-8.36;100.00
72423;BME280;60413;55.658;37.498;2023-02-24T06:08:00;97962.72;;;-8.16;100.00
72423;BME280;60413;55.658;37.498;2023-02-24T06:10:31;97921.81;;;-8.43;100.00
72423;BME280;60413;55.658;37.498;2023-02-24T06:13:03;97930.66;;;-8.29;100.00
72423;BME280;60413;55.658;37.498;2023-02-24T06:15:32;97917.63;;;-8.44;100.00
72423;BME280;60413;55.658;37.498;2023-02-24T06:20:55;97948.84;;;-8.14;100.00
72423;BME280;60413;55.658;37.498;2023-02-24T06:23:25;97975.00;;;-7.76;100.00
72423;BME280;60413;55.658;37.498;2023-02-24T06:25:53;97909.50;;;-8.21;100.00
72423;BME280;60413;55.658;37.498;2023-02-24T06:28:23;97883.63;;;-8.18;100.00
72423;BME280;60413;55.658;37.498;2023-02-24T06:34:08;97918.88;;;-8.04;100.00
72423;BME280;60413;55.658;37.498;2023-02-24T06:37:07;97892.38;;;-8.21;100.00
72423;BME280;60413;55.658;37.498;2023-02-24T06:59:31;97927.19;;;-7.49;100.00
72423;BME280;60413;55.658;37.498;2023-02-24T07:02:08;97921.59;;;-7.53;100.00
72423;BME280;60413;55.658;37.498;2023-02-24T07:05:21;97920.16;;;-7.47;100.00
72423;BME280;60413;55.658;37.498;2023-02-24T07:07:53;97887.84;;;-7.83;100.00
72423;BME280;60413;55.658;37.498;2023-02-24T07:10:25;97921.88;;;-7.21;100.00
72423;BME280;60413;55.658;37.498;2023-02-24T07:13:00;97841.47;;;-7.53;100.00
72423;BME280;60413;55.658;37.498;2023-02-24T07:15:47;97876.53;;;-6.95;100.00
72423;BME280;60413;55.658;37.498;2023-02-24T07:19:21;97898.66;;;-6.61;100.00
72423;BME280;60413;55.658;37.498;2023-02-24T07:21:56;97861.81;;;-6.76;100.00
72423;BME280;60413;55.658;37.498;2023-02-24T07:25:25;97852.81;;;-6.89;100.00
72423;BME280;60413;55.658;37.498;2023-02-24T07:29:29;97855.72;;;-6.67;100.00
72423;BME280;60413;55.658;37.498;2023-02-24T07:32:40;97874.94;;;-6.71;100.00
72423;BME280;60413;55.658;37.498;2023-02-24T07:35:36;97878.78;;;-6.75;100.00
72423;BME280;60413;55.658;37.498;2023-02-24T07:42:13;97780.13;;;-7.12;100.00
72423;BME280;60413;55.658;37.498;2023-02-24T07:45:23;97801.75;;;-6.74;100.00
72423;BME280;60413;55.658;37.498;2023-02-24T07:48:25;97798.84;;;-7.12;100.00
72423;BME280;60413;55.658;37.498;2023-02-24T07:54:38;97828.00;;;-6.55;100.00
72423;BME280;60413;55.658;37.498;2023-02-24T08:06:29;97800.63;;;-6.87;100.00
72423;BME280;60413;55.658;37.498;2023-02-24T08:09:36;97770.84;;;-6.72;100.00
72423;BME280;60413;55.658;37.498;2023-02-24T08:12:37;97807.34;;;-6.45;100.00
72423;BME280;60413;55.658;37.498;2023-02-24T08:15:37;97787.00;;;-6.55;100.00
72423;BME280;60413;55.658;37.498;2023-02-24T08:18:50;97832.81;;;-6.27;100.00
72423;BME280;60413;55.658;37.498;2023-02-24T08:22:01;97776.75;;;-6.55;100.00
72423;BME280;60413;55.658;37.498;2023-02-24T08:24:57;97828.16;;;-6.24;100.00
72423;BME280;60413;55.658;37.498;2023-02-24T08:27:53;97758.66;;;-6.70;100.00
72423;BME280;60413;55.658;37.498;2023-02-24T08:30:24;97768.28;;;-6.56;100.00
72423;BME280;60413;55.658;37.498;2023-02-24T08:33:00;97774.34;;;-6.40;100.00
72423;BME280;60413;55.658;37.498;2023-02-24T08:35:41;97775.94;;;-6.39;100.00
72423;BME280;60413;55.658;37.498;2023-02-24T08:38:22;97821.94;;;-5.82;100.00
72423;BME280;60413;55.658;37.498;2023-02-24T08:40:57;97729.81;;;-6.39;100.00
72423;BME280;60413;55.658;37.498;2023-02-24T08:43:45;97732.84;;;-6.44;100.00
72423;BME280;60413;55.658;37.498;2023-02-24T08:46:17;97770.47;;;-6.20;100.00
72423;BME280;60413;55.658;37.498;2023-02-24T08:48:58;97767.53;;;-6.08;100.00
72423;BME280;60413;55.658;37.498;2023-02-24T08:51:35;97757.81;;;-6.21;100.00
72423;BME280;60413;55.658;37.498;2023-02-24T08:54:23;97761.94;;;-6.20;100.00
72423;BME280;60413;55.658;37.498;2023-02-24T08:57:04;97743.13;;;-5.96;100.00
72423;BME280;60413;55.658;37.498;2023-02-24T08:59:43;97777.78;;;-5.69;100.00
72423;BME280;60413;55.658;37.498;2023-02-24T09:05:45;97768.78;;;-5.65;100.00
72423;BME280;60413;55.658;37.498;2023-02-24T09:08:23;97775.56;;;-5.41;100.00
72423;BME280;60413;55.658;37.498;2023-02-24T09:11:12;97811.00;;;-5.13;100.00
72423;BME280;60413;55.658;37.498;2023-02-24T09:14:24;97800.69;;;-5.05;100.00
72423;BME280;60413;55.658;37.498;2023-02-24T09:17:28;97742.41;;;-5.27;100.00
72423;BME280;60413;55.658;37.498;2023-02-24T09:20:28;97771.91;;;-5.00;100.00
72423;BME280;60413;55.658;37.498;2023-02-24T09:23:35;97702.50;;;-5.38;100.00
72423;BME280;60413;55.658;37.498;2023-02-24T09:26:21;97703.44;;;-5.31;100.00
72423;BME280;60413;55.658;37.498;2023-02-24T09:29:04;97732.94;;;-5.04;100.00
72423;BME280;60413;55.658;37.498;2023-02-24T09:31:55;97723.00;;;-5.07;100.00
72423;BME280;60413;55.658;37.498;2023-02-24T09:34:54;97699.59;;;-5.35;100.00
72423;BME280;60413;55.658;37.498;2023-02-24T09:38:14;97686.31;;;-5.38;100.00
72423;BME280;60413;55.658;37.498;2023-02-24T09:41:01;97721.09;;;-5.13;100.00
72423;BME280;60413;55.658;37.498;2023-02-24T09:43:41;97762.25;;;-4.75;100.00
72423;BME280;60413;55.658;37.498;2023-02-24T09:46:36;97704.41;;;-5.09;100.00
72423;BME280;60413;55.658;37.498;2023-02-24T09:49:48;97749.50;;;-4.68;100.00
72423;BME280;60413;55.658;37.498;2023-02-24T09:52:29;97677.75;;;-5.31;100.00
72423;BME280;60413;55.658;37.498;2023-02-24T09:58:48;97662.75;;;-5.19;100.00
72423;BME280;60413;55.658;37.498;2023-02-24T10:05:06;97732.69;;;-4.56;100.00
72423;BME280;60413;55.658;37.498;2023-02-24T10:07:57;97659.13;;;-5.10;100.00
72423;BME280;60413;55.658;37.498;2023-02-24T10:10:52;97714.97;;;-4.51;100.00
72423;BME280;60413;55.658;37.498;2023-02-24T10:14:09;97669.09;;;-4.77;100.00
72423;BME280;60413;55.658;37.498;2023-02-24T10:17:22;97733.06;;;-4.29;100.00
72423;BME280;60413;55.658;37.498;2023-02-24T10:20:43;97627.06;;;-5.14;100.00
72423;BME280;60413;55.658;37.498;2023-02-24T10:27:48;97686.84;;;-4.22;100.00
72423;BME280;60413;55.658;37.498;2023-02-24T10:30:59;97701.38;;;-4.30;100.00
72423;BME280;60413;55.658;37.498;2023-02-24T10:34:11;97623.63;;;-4.47;100.00
72423;BME280;60413;55.658;37.498;2023-02-24T10:37:47;97655.97;;;-4.07;100.00
72423;BME280;60413;55.658;37.498;2023-02-24T10:40:48;97609.28;;;-4.41;100.00
72423;BME280;60413;55.658;37.498;2023-02-24T10:43:57;97608.50;;;-4.20;100.00
72423;BME280;60413;55.658;37.498;2023-02-24T10:47:02;97642.66;;;-3.75;100.00
72423;BME280;60413;55.658;37.498;2023-02-24T10:50:27;97634.97;;;-3.68;100.00
72423;BME280;60413;55.658;37.498;2023-02-24T10:54:01;97615.75;;;-3.72;100.00
72423;BME280;60413;55.658;37.498;2023-02-24T10:57:22;97589.53;;;-3.82;100.00
72423;BME280;60413;55.658;37.498;2023-02-24T11:04:31;97626.53;;;-3.40;100.00
72423;BME280;60413;55.658;37.498;2023-02-24T11:07:30;97629.97;;;-3.55;100.00
72423;BME280;60413;55.658;37.498;2023-02-24T11:13:29;97585.03;;;-3.74;100.00
72423;BME280;60413;55.658;37.498;2023-02-24T11:17:11;97582.66;;;-3.75;100.00
72423;BME280;60413;55.658;37.498;2023-02-24T11:20:13;97629.88;;;-3.83;100.00
72423;BME280;60413;55.658;37.498;2023-02-24T11:23:00;97553.78;;;-3.92;100.00
72423;BME280;60413;55.658;37.498;2023-02-24T11:25:46;97567.06;;;-3.88;100.00
72423;BME280;60413;55.658;37.498;2023-02-24T11:32:16;97632.16;;;-3.30;100.00
72423;BME280;60413;55.658;37.498;2023-02-24T11:35:38;97610.84;;;-3.45;100.00
72423;BME280;60413;55.658;37.498;2023-02-24T11:41:57;97547.56;;;-3.76;100.00
72423;BME280;60413;55.658;37.498;2023-02-24T11:44:33;97617.63;;;-3.38;100.00
72423;BME280;60413;55.658;37.498;2023-02-24T11:47:24;97598.50;;;-3.50;100.00
72423;BME280;60413;55.658;37.498;2023-02-24T11:54:11;97612.06;;;-3.63;100.00
72423;BME280;60413;55.658;37.498;2023-02-24T11:57:53;97529.56;;;-4.19;100.00
72423;BME280;60413;55.658;37.498;2023-02-24T12:00:31;97606.59;;;-3.75;100.00
72423;BME280;60413;55.658;37.498;2023-02-24T12:04:05;97603.53;;;-3.63;100.00
72423;BME280;60413;55.658;37.498;2023-02-24T12:06:47;97545.06;;;-4.13;100.00
72423;BME280;60413;55.658;37.498;2023-02-24T12:09:20;97570.81;;;-3.91;100.00
72423;BME280;60413;55.658;37.498;2023-02-24T12:11:59;97544.75;;;-4.03;100.00
72423;BME280;60413;55.658;37.498;2023-02-24T12:14:43;97558.31;;;-3.94;100.00
72423;BME280;60413;55.658;37.498;2023-02-24T12:17:30;97593.91;;;-3.76;100.00
72423;BME280;60413;55.658;37.498;2023-02-24T12:20:27;97592.34;;;-3.77;100.00
72423;BME280;60413;55.658;37.498;2023-02-24T12:23:13;97580.38;;;-3.85;100.00
72423;BME280;60413;55.658;37.498;2023-02-24T12:29:28;97508.34;;;-4.43;100.00
72423;BME280;60413;55.658;37.498;2023-02-24T12:32:08;97511.94;;;-4.59;100.00
72423;BME280;60413;55.658;37.498;2023-02-24T12:35:46;97520.16;;;-4.49;100.00
72423;BME280;60413;55.658;37.498;2023-02-24T12:41:27;97574.59;;;-4.08;100.00
72423;BME280;60413;55.658;37.498;2023-02-24T12:45:03;97504.41;;;-4.60;100.00
72423;BME280;60413;55.658;37.498;2023-02-24T12:48:17;97568.66;;;-4.09;100.00
72423;BME280;60413;55.658;37.498;2023-02-24T13:03:41;97541.16;;;-4.08;100.00
72423;BME280;60413;55.658;37.498;2023-02-24T13:11:33;97515.28;;;-4.43;100.00
72423;BME280;60413;55.658;37.498;2023-02-24T13:17:15;97483.34;;;-4.71;100.00
72423;BME280;60413;55.658;37.498;2023-02-24T13:20:12;97547.84;;;-4.14;100.00
72423;BME280;60413;55.658;37.498;2023-02-24T13:22:42;97536.63;;;-4.06;100.00
72423;BME280;60413;55.658;37.498;2023-02-24T13:25:19;97528.34;;;-4.02;100.00
72423;BME280;60413;55.658;37.498;2023-02-24T13:28:01;97502.50;;;-4.15;100.00
72423;BME280;60413;55.658;37.498;2023-02-24T13:30:39;97532.59;;;-3.94;100.00
72423;BME280;60413;55.658;37.498;2023-02-24T13:33:21;97523.09;;;-3.94;100.00
72423;BME280;60413;55.658;37.498;2023-02-24T13:36:31;97458.53;;;-4.42;100.00
72423;BME280;60413;55.658;37.498;2023-02-24T13:43:26;97477.13;;;-4.40;100.00
72423;BME280;60413;55.658;37.498;2023-02-24T13:46:23;97485.50;;;-4.31;100.00
72423;BME280;60413;55.658;37.498;2023-02-24T13:49:35;97531.72;;;-4.01;100.00
72423;BME280;60413;55.658;37.498;2023-02-24T13:55:44;97520.88;;;-3.97;100.00
72423;BME280;60413;55.658;37.498;2023-02-24T14:02:25;97433.78;;;-4.43;100.00
72423;BME280;60413;55.658;37.498;2023-02-24T14:05:00;97441.84;;;-4.46;100.00
72423;BME280;60413;55.658;37.498;2023-02-24T14:08:05;97508.97;;;-3.98;100.00
72423;BME280;60413;55.658;37.498;2023-02-24T14:11:17;97503.22;;;-4.00;100.00
72423;BME280;60413;55.658;37.498;2023-02-24T14:14:03;97462.31;;;-4.38;100.00
72423;BME280;60413;55.658;37.498;2023-02-24T14:16:39;97416.34;;;-4.69;100.00
72423;BME280;60413;55.658;37.498;2023-02-24T14:19:23;97428.19;;;-4.68;100.00
72423;BME280;60413;55.658;37.498;2023-02-24T14:22:18;97456.53;;;-4.61;100.00
72423;BME280;60413;55.658;37.498;2023-02-24T14:25:10;97476.28;;;-4.47;100.00
72423;BME280;60413;55.658;37.498;2023-02-24T14:27:51;97504.94;;;-4.29;100.00
72423;BME280;60413;55.658;37.498;2023-02-24T14:33:42;97469.53;;;-4.48;100.00
72423;BME280;60413;55.658;37.498;2023-02-24T14:37:29;97430.19;;;-4.85;100.00
72423;BME280;60413;55.658;37.498;2023-02-24T14:47:17;97435.88;;;-4.90;100.00
72423;BME280;60413;55.658;37.498;2023-02-24T14:50:03;97486.44;;;-4.39;100.00
72423;BME280;60413;55.658;37.498;2023-02-24T14:53:01;97476.13;;;-4.60;100.00
72423;BME280;60413;55.658;37.498;2023-02-24T14:55:45;97459.78;;;-4.74;100.00
72423;BME280;60413;55.658;37.498;2023-02-24T15:08:31;97490.91;;;-4.48;100.00
72423;BME280;60413;55.658;37.498;2023-02-24T15:11:24;97409.50;;;-4.98;100.00
72423;BME280;60413;55.658;37.498;2023-02-24T15:14:28;97417.44;;;-4.93;100.00
72423;BME280;60413;55.658;37.498;2023-02-24T15:17:07;97419.63;;;-5.12;100.00
72423;BME280;60413;55.658;37.498;2023-02-24T15:20:27;97409.16;;;-5.10;100.00
72423;BME280;60413;55.658;37.498;2023-02-24T15:23:27;97460.91;;;-4.77;100.00
72423;BME280;60413;55.658;37.498;2023-02-24T15:26:02;97494.03;;;-4.52;100.00
72423;BME280;60413;55.658;37.498;2023-02-24T15:29:11;97478.72;;;-4.60;100.00
72423;BME280;60413;55.658;37.498;2023-02-24T15:32:02;97447.94;;;-4.90;100.00
72423;BME280;60413;55.658;37.498;2023-02-24T15:34:34;97453.03;;;-4.75;100.00
72423;BME280;60413;55.658;37.498;2023-02-24T15:37:26;97421.97;;;-4.95;100.00
72423;BME280;60413;55.658;37.498;2023-02-24T15:40:18;97481.59;;;-4.49;100.00
72423;BME280;60413;55.658;37.498;2023-02-24T15:42:54;97498.34;;;-4.53;100.00
72423;BME280;60413;55.658;37.498;2023-02-24T15:45:24;97475.22;;;-4.53;100.00
72423;BME280;60413;55.658;37.498;2023-02-24T15:51:42;97433.03;;;-4.95;100.00
72423;BME280;60413;55.658;37.498;2023-02-24T15:54:34;97439.16;;;-4.81;100.00
72423;BME280;60413;55.658;37.498;2023-02-24T15:57:15;97433.13;;;-4.88;100.00
72423;BME280;60413;55.658;37.498;2023-02-24T16:00:06;97393.13;;;-5.12;100.00
72423;BME280;60413;55.658;37.498;2023-02-24T16:02:46;97410.00;;;-4.88;100.00
72423;BME280;60413;55.658;37.498;2023-02-24T16:05:56;97414.78;;;-4.85;100.00
72423;BME280;60413;55.658;37.498;2023-02-24T16:08:29;97403.03;;;-4.94;100.00
72423;BME280;60413;55.658;37.498;2023-02-24T16:11:02;97416.44;;;-4.77;100.00
72423;BME280;60413;55.658;37.498;2023-02-24T16:13:32;97464.56;;;-4.50;100.00
72423;BME280;60413;55.658;37.498;2023-02-24T16:16:05;97371.97;;;-5.14;100.00
72423;BME280;60413;55.658;37.498;2023-02-24T16:18:38;97390.47;;;-5.04;100.00
72423;BME280;60413;55.658;37.498;2023-02-24T16:21:08;97385.03;;;-4.94;100.00
72423;BME280;60413;55.658;37.498;2023-02-24T16:23:38;97433.66;;;-4.56;100.00
72423;BME280;60413;55.658;37.498;2023-02-24T16:26:26;97411.47;;;-4.79;100.00
72423;BME280;60413;55.658;37.498;2023-02-24T16:29:01;97408.06;;;-4.65;100.00
72423;BME280;60413;55.658;37.498;2023-02-24T16:31:41;97440.41;;;-4.34;100.00
72423;BME280;60413;55.658;37.498;2023-02-24T16:34:13;97357.44;;;-4.86;100.00
72423;BME280;60413;55.658;37.498;2023-02-24T16:36:44;97375.88;;;-4.82;100.00
72423;BME280;60413;55.658;37.498;2023-02-24T16:42:41;97376.97;;;-4.70;100.00
72423;BME280;60413;55.658;37.498;2023-02-24T16:48:47;97423.19;;;-4.33;100.00
72423;BME280;60413;55.658;37.498;2023-02-24T16:51:58;97367.78;;;-4.79;100.00
72423;BME280;60413;55.658;37.498;2023-02-24T16:54:47;97385.78;;;-4.57;100.00
72423;BME280;60413;55.658;37.498;2023-02-24T16:57:41;97421.78;;;-4.57;100.00
72423;BME280;60413;55.658;37.498;2023-02-24T17:00:14;97345.81;;;-5.03;100.00
72423;BME280;60413;55.658;37.498;2023-02-24T17:02:43;97376.13;;;-4.77;100.00
72423;BME280;60413;55.658;37.498;2023-02-24T17:05:29;97342.56;;;-4.90;100.00
72423;BME280;60413;55.658;37.498;2023-02-24T17:08:09;97336.63;;;-5.12;100.00
72423;BME280;60413;55.658;37.498;2023-02-24T17:14:49;97328.19;;;-5.06;100.00